createdAt,value
2024-05-09T00:00:40.005Z,102679.59
2024-05-09T00:03:09.843Z,102661.44
2024-05-09T00:05:38.658Z,102674.03
2024-05-09T00:08:06.632Z,102673.13
2024-05-09T00:10:37.235Z,102666.81
2024-05-09T00:13:06.977Z,102668.00
2024-05-09T00:15:34.652Z,102663.59
2024-05-09T00:18:04.131Z,102673.91
2024-05-09T00:23:01.514Z,102678.25
2024-05-09T00:25:28.257Z,102674.22
2024-05-09T00:27:55.018Z,102673.28
2024-05-09T00:30:31.036Z,102664.97
2024-05-09T00:33:01.604Z,102662.88
2024-05-09T00:35:28.769Z,102655.81
2024-05-09T00:37:55.639Z,102656.19
2024-05-09T00:40:30.922Z,102657.16
2024-05-09T00:43:08.100Z,102658.41
2024-05-09T00:45:35.818Z,102644.88
2024-05-09T00:48:07.052Z,102658.63
2024-05-09T00:50:37.766Z,102663.13
2024-05-09T00:53:08.166Z,102652.50
2024-05-09T00:55:37.908Z,102658.97
2024-05-09T00:58:06.076Z,102664.97
2024-05-09T01:00:38.918Z,102665.84
2024-05-09T01:03:12.821Z,102668.81
2024-05-09T01:05:43.745Z,102677.63
2024-05-09T01:11:02.087Z,102679.94
2024-05-09T01:13:28.807Z,102670.28
2024-05-09T01:15:55.749Z,102677.00
2024-05-09T01:18:22.630Z,102670.22
2024-05-09T01:20:49.436Z,102671.66
2024-05-09T01:23:16.767Z,102674.81
2024-05-09T01:25:44.805Z,102639.47
2024-05-09T01:28:13.587Z,102678.84
2024-05-09T01:30:40.531Z,102668.72
2024-05-09T01:33:10.479Z,102668.25
2024-05-09T01:35:41.681Z,102663.38
2024-05-09T01:38:12.171Z,102664.84
2024-05-09T01:40:40.496Z,102664.34
2024-05-09T01:43:09.997Z,102663.50
2024-05-09T01:45:38.553Z,102662.88
2024-05-09T01:48:05.993Z,102656.66
2024-05-09T01:50:39.206Z,102656.06
2024-05-09T01:53:15.009Z,102657.53
2024-05-09T01:55:43.523Z,102667.53
2024-05-09T01:58:10.606Z,102665.34
2024-05-09T02:00:42.400Z,102671.41
2024-05-09T02:03:14.575Z,102661.53
2024-05-09T02:05:45.774Z,102663.16
2024-05-09T02:08:15.242Z,102655.09
2024-05-09T02:10:44.188Z,102658.72
2024-05-09T02:13:11.383Z,102657.38
2024-05-09T02:15:39.206Z,102661.69
2024-05-09T02:18:08.405Z,102663.00
2024-05-09T02:20:38.381Z,102659.97
2024-05-09T02:23:06.632Z,102662.75
2024-05-09T02:25:34.152Z,102660.69
2024-05-09T02:28:03.349Z,102618.88
2024-05-09T02:30:39.326Z,102652.16
2024-05-09T02:33:13.729Z,102657.88
2024-05-09T02:35:41.882Z,102660.81
2024-05-09T02:38:12.520Z,102662.84
2024-05-09T02:40:40.415Z,102659.69
2024-05-09T02:43:09.605Z,102661.63
2024-05-09T02:45:37.888Z,102657.00
2024-05-09T02:48:05.377Z,102662.63
2024-05-09T02:50:37.957Z,102654.56
2024-05-09T02:53:07.623Z,102654.31
2024-05-09T02:55:34.877Z,102657.75
2024-05-09T02:58:01.733Z,102653.13
2024-05-09T03:00:37.161Z,102659.31
2024-05-09T03:03:08.962Z,102660.44
2024-05-09T03:05:37.499Z,102652.13
2024-05-09T03:08:04.808Z,102638.44
2024-05-09T03:10:36.170Z,102603.66
2024-05-09T03:13:13.378Z,102655.72
2024-05-09T03:15:42.021Z,102624.16
2024-05-09T03:18:09.285Z,102615.47
2024-05-09T03:20:37.236Z,102656.69
2024-05-09T03:23:05.725Z,102660.56
2024-05-09T03:25:33.240Z,102658.16
2024-05-09T03:28:01.306Z,102654.00
2024-05-09T03:30:38.954Z,102652.28
2024-05-09T03:33:19.155Z,102655.69
2024-05-09T03:35:47.700Z,102624.41
2024-05-09T03:38:14.789Z,102649.38
2024-05-09T03:40:46.685Z,102653.81
2024-05-09T03:43:14.800Z,102651.75
2024-05-09T03:45:45.510Z,102649.06
2024-05-09T03:48:12.897Z,102658.59
2024-05-09T03:50:40.178Z,102654.78
2024-05-09T03:53:10.661Z,102656.03
2024-05-09T03:55:38.012Z,102658.59
2024-05-09T03:58:07.986Z,102662.13
2024-05-09T04:00:38.736Z,102654.94
2024-05-09T04:03:09.694Z,102656.03
2024-05-09T04:05:42.865Z,102664.56
2024-05-09T04:08:11.167Z,102643.56
2024-05-09T04:10:38.252Z,102660.66
2024-05-09T04:13:05.508Z,102643.47
2024-05-09T04:15:33.301Z,102652.63
2024-05-09T04:18:01.275Z,102655.78
2024-05-09T04:20:36.554Z,102649.22
2024-05-09T04:23:08.638Z,102655.94
2024-05-09T04:25:36.072Z,102658.97
2024-05-09T04:28:03.277Z,102654.72
2024-05-09T04:30:36.736Z,102648.75
2024-05-09T04:33:08.507Z,102658.00
2024-05-09T04:35:37.562Z,102650.59
2024-05-09T04:38:05.180Z,102656.19
2024-05-09T04:40:35.255Z,102660.56
2024-05-09T04:43:05.297Z,102659.19
2024-05-09T04:45:32.335Z,102655.75
2024-05-09T04:47:59.460Z,102635.34
2024-05-09T04:50:35.404Z,102645.13
2024-05-09T04:53:05.816Z,102649.41
2024-05-09T04:55:33.586Z,102649.06
2024-05-09T04:58:00.331Z,102644.63
2024-05-09T05:00:34.753Z,102647.38
2024-05-09T05:03:07.213Z,102641.94
2024-05-09T05:05:42.408Z,102649.69
2024-05-09T05:08:13.946Z,102648.59
2024-05-09T05:10:41.986Z,102648.09
2024-05-09T05:13:20.384Z,102651.38
2024-05-09T05:15:49.594Z,102655.97
2024-05-09T05:18:16.862Z,102653.78
2024-05-09T05:20:44.711Z,102653.88
2024-05-09T05:23:16.504Z,102645.47
2024-05-09T05:25:43.610Z,102647.84
2024-05-09T05:28:11.339Z,102622.34
2024-05-09T05:30:38.620Z,102643.94
2024-05-09T05:33:06.817Z,102645.22
2024-05-09T05:35:34.487Z,102641.28
2024-05-09T05:38:01.728Z,102638.66
2024-05-09T05:40:36.140Z,102637.00
2024-05-09T05:43:10.299Z,102641.06
2024-05-09T05:45:37.923Z,102643.56
2024-05-09T05:48:06.387Z,102633.13
2024-05-09T05:50:36.830Z,102630.53
2024-05-09T05:53:07.068Z,102616.00
2024-05-09T05:55:34.579Z,102621.16
2024-05-09T05:58:02.009Z,102620.44
2024-05-09T06:00:35.002Z,102613.00
2024-05-09T06:03:06.055Z,102607.03
2024-05-09T06:05:33.149Z,102602.31
2024-05-09T06:08:00.255Z,102596.69
2024-05-09T06:10:36.990Z,102603.41
2024-05-09T06:13:06.689Z,102596.69
2024-05-09T06:15:33.398Z,102589.63
2024-05-09T06:18:00.497Z,102589.22
2024-05-09T06:20:35.055Z,102591.19
2024-05-09T06:23:05.176Z,102585.50
2024-05-09T06:25:32.232Z,102573.53
2024-05-09T06:28:02.010Z,102577.09
2024-05-09T06:30:37.800Z,102519.34
2024-05-09T06:33:08.954Z,102567.69
2024-05-09T06:35:36.813Z,102570.31
2024-05-09T06:38:04.072Z,102565.25
2024-05-09T06:40:37.294Z,102572.59
2024-05-09T06:43:18.076Z,102567.75
2024-05-09T06:45:50.364Z,102556.34
2024-05-09T06:48:21.569Z,102555.44
2024-05-09T06:50:49.683Z,102560.16
2024-05-09T06:53:17.497Z,102578.94
2024-05-09T06:55:44.533Z,102564.00
2024-05-09T06:58:13.511Z,102565.03
2024-05-09T07:00:42.422Z,102571.75
2024-05-09T07:03:10.352Z,102558.09
2024-05-09T07:05:38.070Z,102563.97
2024-05-09T07:08:08.995Z,102564.78
2024-05-09T07:10:38.404Z,102570.38
2024-05-09T07:13:13.778Z,102566.16
2024-05-09T07:15:41.752Z,102572.06
2024-05-09T07:18:13.203Z,102574.69
2024-05-09T07:20:43.657Z,102580.91
2024-05-09T07:23:11.893Z,102567.66
2024-05-09T07:25:40.056Z,102570.50
2024-05-09T07:28:16.030Z,102579.16
2024-05-09T07:30:43.430Z,102586.22
2024-05-09T07:33:22.753Z,102580.38
2024-05-09T07:35:50.900Z,102577.84
2024-05-09T07:38:17.978Z,102580.97
2024-05-09T07:40:44.923Z,102573.53
2024-05-09T07:43:13.105Z,102562.16
2024-05-09T07:45:49.891Z,102535.16
2024-05-09T07:52:38.554Z,102562.31
2024-05-09T07:53:49.716Z,102554.59
2024-05-09T07:56:22.176Z,102560.03
2024-05-09T07:58:52.123Z,102542.34
2024-05-09T08:01:19.923Z,102555.34
2024-05-09T08:03:47.260Z,102563.84
2024-05-09T08:06:14.336Z,102557.19
2024-05-09T08:08:41.161Z,102555.09
2024-05-09T08:11:08.064Z,102563.47
2024-05-09T08:13:34.818Z,102563.75
2024-05-09T08:16:01.736Z,102560.44
2024-05-09T08:18:29.089Z,102563.00
2024-05-09T08:20:56.017Z,102560.69
2024-05-09T08:23:23.913Z,102560.94
2024-05-09T08:25:51.150Z,102541.34
2024-05-09T08:28:17.962Z,102552.13
2024-05-09T08:30:45.206Z,102553.69
2024-05-09T08:33:12.446Z,102525.91
2024-05-09T08:35:39.336Z,102548.81
2024-05-09T08:38:07.541Z,102548.28
2024-05-09T08:40:36.779Z,102559.34
2024-05-09T08:43:10.470Z,102550.22
2024-05-09T08:45:43.254Z,102557.81
2024-05-09T08:48:12.866Z,102553.63
2024-05-09T08:50:43.284Z,102555.47
2024-05-09T08:53:10.363Z,102551.50
2024-05-09T08:55:40.059Z,102549.50
2024-05-09T08:58:12.615Z,102551.03
2024-05-09T09:00:42.351Z,102543.06
2024-05-09T09:03:11.547Z,102545.13
2024-05-09T09:05:40.659Z,102539.28
2024-05-09T09:08:08.944Z,102548.84
2024-05-09T09:10:39.558Z,102544.56
2024-05-09T09:13:09.773Z,102548.50
2024-05-09T09:15:50.657Z,102557.25
2024-05-09T09:18:18.577Z,102541.63
2024-05-09T09:20:45.788Z,102544.13
2024-05-09T09:23:13.106Z,102551.56
2024-05-09T09:25:40.688Z,102521.22
2024-05-09T09:28:07.899Z,102532.09
2024-05-09T09:30:38.676Z,102532.19
2024-05-09T09:33:06.655Z,102532.00
2024-05-09T09:35:35.865Z,102530.72
2024-05-09T09:38:04.771Z,102520.78
2024-05-09T09:40:37.592Z,102531.88
2024-05-09T09:43:18.190Z,102532.22
2024-05-09T09:45:46.572Z,102528.78
2024-05-09T09:48:15.052Z,102534.75
2024-05-09T09:50:42.607Z,102535.59
2024-05-09T09:53:10.022Z,102531.97
2024-05-09T09:55:37.834Z,102536.84
2024-05-09T09:58:05.863Z,102527.03
2024-05-09T10:00:34.662Z,102526.16
2024-05-09T10:03:02.628Z,102518.97
2024-05-09T10:05:30.306Z,102507.13
2024-05-09T10:07:58.627Z,102511.44
2024-05-09T10:10:32.192Z,102515.97
2024-05-09T10:13:02.954Z,102503.81
2024-05-09T10:15:30.692Z,102516.03
2024-05-09T10:18:07.869Z,102509.88
2024-05-09T10:20:45.048Z,102505.38
2024-05-09T10:23:28.948Z,102505.13
2024-05-09T10:26:00.396Z,102490.50
2024-05-09T10:28:28.471Z,102497.41
2024-05-09T10:31:11.432Z,102487.13
2024-05-09T10:33:52.692Z,102486.78
2024-05-09T10:36:22.368Z,102489.81
2024-05-09T10:38:52.129Z,102488.97
2024-05-09T10:42:10.716Z,102489.47
2024-05-09T10:44:38.980Z,102454.78
2024-05-09T10:47:05.867Z,102480.44
2024-05-09T10:49:33.742Z,102477.91
2024-05-09T10:52:04.307Z,102481.53
2024-05-09T10:54:39.287Z,102470.44
2024-05-09T10:57:06.770Z,102471.56
2024-05-09T10:59:39.375Z,102481.03
2024-05-09T11:02:10.330Z,102476.78
2024-05-09T11:04:39.953Z,102472.66
2024-05-09T11:07:14.864Z,102462.66
2024-05-09T11:09:43.253Z,102462.38
2024-05-09T11:12:10.846Z,102468.25
2024-05-09T11:14:37.781Z,102427.88
2024-05-09T11:17:07.059Z,102457.91
2024-05-09T11:19:42.008Z,102454.06
2024-05-09T11:22:09.146Z,102451.22
2024-05-09T11:24:36.170Z,102452.09
2024-05-09T11:27:05.268Z,102449.63
2024-05-09T11:29:43.337Z,102453.75
2024-05-09T11:32:12.243Z,102443.47
2024-05-09T11:34:42.030Z,102449.28
2024-05-09T11:37:10.130Z,102439.56
2024-05-09T11:39:37.178Z,102430.69
2024-05-09T11:42:04.666Z,102425.94
2024-05-09T11:44:31.394Z,102424.06
2024-05-09T11:46:58.722Z,102407.84
2024-05-09T11:49:26.911Z,102424.31
2024-05-09T11:51:54.068Z,102420.41
2024-05-09T11:54:20.820Z,102412.31
2024-05-09T11:56:47.575Z,102421.47
2024-05-09T11:59:14.336Z,102420.94
2024-05-09T12:01:41.658Z,102416.22
2024-05-09T12:04:09.176Z,102412.91
2024-05-09T12:06:36.217Z,102414.84
2024-05-09T12:09:03.109Z,102412.88
2024-05-09T12:11:29.879Z,102410.50
2024-05-09T12:13:56.591Z,102418.19
2024-05-09T12:16:23.683Z,102410.41
2024-05-09T12:18:50.876Z,102404.53
2024-05-09T12:21:17.858Z,102408.06
2024-05-09T12:23:44.781Z,102402.59
2024-05-09T12:26:11.707Z,102407.56
2024-05-09T12:28:38.478Z,102400.63
2024-05-09T12:31:05.362Z,102403.66
2024-05-09T12:33:32.687Z,102402.78
2024-05-09T12:35:59.787Z,102398.16
2024-05-09T12:38:26.738Z,102370.91
2024-05-09T12:40:53.816Z,102400.81
2024-05-09T12:43:20.754Z,102403.06
2024-05-09T12:45:47.837Z,102391.50
2024-05-09T12:48:15.828Z,102392.53
2024-05-09T12:50:42.777Z,102388.91
2024-05-09T12:53:09.929Z,102388.28
2024-05-09T12:55:44.316Z,102383.97
2024-05-09T12:58:20.092Z,102381.25
2024-05-09T13:00:47.487Z,102385.34
2024-05-09T13:03:14.963Z,102378.81
2024-05-09T13:05:44.981Z,102382.66
2024-05-09T13:08:12.835Z,102384.06
2024-05-09T13:10:39.762Z,102374.31
2024-05-09T13:13:06.712Z,102370.72
2024-05-09T13:15:34.949Z,102371.59
2024-05-09T13:18:04.085Z,102361.25
2024-05-09T13:20:34.163Z,102362.94
2024-05-09T13:23:07.280Z,102368.59
2024-05-09T13:25:37.787Z,102322.78
2024-05-09T13:28:06.127Z,102354.00
2024-05-09T13:30:39.514Z,102348.72
2024-05-09T13:33:13.944Z,102348.66
2024-05-09T13:35:46.849Z,102346.38
2024-05-09T13:38:16.959Z,102332.19
2024-05-09T13:40:44.064Z,102329.22
2024-05-09T13:43:11.206Z,102329.56
2024-05-09T13:45:37.937Z,102327.06
2024-05-09T13:48:07.106Z,102325.66
2024-05-09T13:50:36.338Z,102326.88
2024-05-09T13:55:57.948Z,102324.94
2024-05-09T13:58:24.995Z,102322.22
2024-05-09T14:00:52.131Z,102326.22
2024-05-09T14:03:20.431Z,102326.50
2024-05-09T14:05:50.212Z,102317.03
2024-05-09T14:08:20.082Z,102315.03
2024-05-09T14:10:47.931Z,102320.47
2024-05-09T14:13:17.100Z,102319.59
2024-05-09T14:15:44.341Z,102321.00
2024-05-09T14:18:13.984Z,102301.94
2024-05-09T14:20:42.199Z,102320.25
2024-05-09T14:23:09.197Z,102315.69
2024-05-09T14:25:42.826Z,102310.94
2024-05-09T14:28:11.937Z,102313.13
2024-05-09T14:30:40.703Z,102312.59
2024-05-09T14:33:09.059Z,102309.00
2024-05-09T14:35:38.380Z,102299.31
2024-05-09T14:38:06.790Z,102293.16
2024-05-09T14:40:40.746Z,102291.22
2024-05-09T14:43:15.427Z,102292.06
2024-05-09T14:45:43.728Z,102287.03
2024-05-09T14:48:16.499Z,102282.84
2024-05-09T14:50:43.648Z,102275.75
2024-05-09T14:53:12.176Z,102277.50
2024-05-09T14:55:40.782Z,102285.28
2024-05-09T14:58:10.199Z,102277.38
2024-05-09T15:00:42.417Z,102282.72
2024-05-09T15:03:12.037Z,102273.34
2024-05-09T15:05:40.461Z,102247.94
2024-05-09T15:08:08.830Z,102263.03
2024-05-09T15:10:36.964Z,102270.31
2024-05-09T15:13:08.037Z,102268.69
2024-05-09T15:15:36.774Z,102262.31
2024-05-09T15:18:05.702Z,102250.38
2024-05-09T15:20:36.638Z,102250.41
2024-05-09T15:23:06.411Z,102257.66
2024-05-09T15:25:34.888Z,102253.19
2024-05-09T15:28:02.288Z,102238.50
2024-05-09T15:30:32.187Z,102254.06
2024-05-09T15:33:04.163Z,102249.06
2024-05-09T15:35:32.409Z,102253.78
2024-05-09T15:37:59.411Z,102257.63
2024-05-09T15:40:35.445Z,102258.44
2024-05-09T15:43:07.137Z,102263.69
2024-05-09T15:45:34.879Z,102240.53
2024-05-09T15:48:03.254Z,102258.56
2024-05-09T15:50:36.715Z,102252.44
2024-05-09T15:53:08.213Z,102238.19
2024-05-09T15:55:35.852Z,102242.00
2024-05-09T15:58:04.151Z,102244.00
2024-05-09T16:00:38.930Z,102235.22
2024-05-09T16:03:13.136Z,102244.44
2024-05-09T16:05:41.662Z,102237.63
2024-05-09T16:08:08.916Z,102231.56
2024-05-09T16:10:37.041Z,102212.75
2024-05-09T16:13:04.725Z,102246.25
2024-05-09T16:15:32.185Z,102230.78
2024-05-09T16:18:01.421Z,102239.84
2024-05-09T16:23:19.373Z,102242.69
2024-05-09T16:25:48.477Z,102231.78
2024-05-09T16:28:16.546Z,102189.31
2024-05-09T16:30:43.500Z,102232.19
2024-05-09T16:33:12.921Z,102221.41
2024-05-09T16:35:41.068Z,102190.34
2024-05-09T16:38:09.541Z,102243.47
2024-05-09T16:40:40.127Z,102193.94
2024-05-09T16:43:13.122Z,102221.09
2024-05-09T16:45:45.249Z,102184.41
2024-05-09T16:48:14.187Z,102227.22
2024-05-09T16:50:41.597Z,102238.44
2024-05-09T16:53:09.266Z,102199.00
2024-05-09T16:55:36.913Z,102248.13
2024-05-09T16:58:05.105Z,102167.31
2024-05-09T17:00:40.434Z,102228.81
2024-05-09T17:03:15.287Z,102245.91
2024-05-09T17:05:44.122Z,102180.41
2024-05-09T17:08:11.659Z,102231.88
2024-05-09T17:10:39.057Z,102240.41
2024-05-09T17:13:08.406Z,102232.09
2024-05-09T17:15:37.393Z,102233.81
2024-05-09T17:18:07.261Z,102215.00
2024-05-09T17:20:40.651Z,102232.03
2024-05-09T17:23:13.955Z,102223.03
2024-05-09T17:25:42.042Z,102231.94
2024-05-09T17:28:10.983Z,102224.81
2024-05-09T17:30:40.367Z,102224.03
2024-05-09T17:33:11.715Z,102189.44
2024-05-09T17:35:40.404Z,102221.19
2024-05-09T17:38:07.865Z,102211.97
2024-05-09T17:40:37.192Z,102193.94
2024-05-09T17:43:10.832Z,102214.94
2024-05-09T17:45:40.356Z,102221.50
2024-05-09T17:48:11.376Z,102216.63
2024-05-09T17:50:40.735Z,102210.78
2024-05-09T17:53:10.944Z,102214.59
2024-05-09T17:55:38.230Z,102219.69
2024-05-09T17:58:06.062Z,102216.78
2024-05-09T18:00:39.413Z,102222.69
2024-05-09T18:03:12.446Z,102213.91
2024-05-09T18:05:44.281Z,102213.47
2024-05-09T18:08:13.090Z,102209.06
2024-05-09T18:10:42.226Z,102146.03
2024-05-09T18:13:11.239Z,102217.28
2024-05-09T18:15:39.338Z,102203.81
2024-05-09T18:18:07.083Z,102219.78
2024-05-09T18:20:41.938Z,102208.88
2024-05-09T18:23:13.979Z,102227.16
2024-05-09T18:25:41.422Z,102218.94
2024-05-09T18:28:08.316Z,102221.25
2024-05-09T18:30:36.839Z,102215.75
2024-05-09T18:33:06.698Z,102219.28
2024-05-09T18:35:35.058Z,102205.38
2024-05-09T18:38:02.085Z,102218.81
2024-05-09T18:40:34.499Z,102215.22
2024-05-09T18:43:07.157Z,102191.34
2024-05-09T18:45:45.465Z,102225.75
2024-05-09T18:48:13.818Z,102240.81
2024-05-09T18:50:41.654Z,102239.69
2024-05-09T18:53:11.770Z,102240.25
2024-05-09T18:55:40.019Z,102246.69
2024-05-09T18:58:07.292Z,102252.09
2024-05-09T19:00:37.770Z,102258.34
2024-05-09T19:03:10.477Z,102252.63
2024-05-09T19:05:40.741Z,102260.53
2024-05-09T19:08:08.292Z,102245.41
2024-05-09T19:10:37.584Z,102262.63
2024-05-09T19:13:09.147Z,102256.97
2024-05-09T19:15:39.751Z,102261.78
2024-05-09T19:18:07.574Z,102263.09
2024-05-09T19:20:36.606Z,102257.66
2024-05-09T19:23:05.924Z,102235.72
2024-05-09T19:25:33.763Z,102246.66
2024-05-09T19:28:01.199Z,102260.16
2024-05-09T19:30:37.653Z,102230.22
2024-05-09T19:33:08.949Z,102261.22
2024-05-09T19:35:36.118Z,102267.66
2024-05-09T19:38:03.101Z,102258.66
2024-05-09T19:40:32.426Z,102263.47
2024-05-09T19:43:02.669Z,102255.88
2024-05-09T19:45:30.197Z,102270.34
2024-05-09T19:47:57.532Z,102265.94
2024-05-09T19:50:32.472Z,102260.50
2024-05-09T19:53:07.335Z,102269.72
2024-05-09T19:55:35.060Z,102274.31
2024-05-09T19:58:05.431Z,102279.13
2024-05-09T20:00:42.120Z,102265.19
2024-05-09T20:03:13.166Z,102264.09
2024-05-09T20:05:47.835Z,102259.88
2024-05-09T20:08:15.072Z,102278.41
2024-05-09T20:10:41.899Z,102275.22
2024-05-09T20:13:09.111Z,102274.59
2024-05-09T20:15:37.815Z,102282.75
2024-05-09T20:18:05.978Z,102282.13
2024-05-09T20:20:39.063Z,102280.28
2024-05-09T20:23:11.524Z,102283.38
2024-05-09T20:25:38.778Z,102276.19
2024-05-09T20:28:08.943Z,102277.09
2024-05-09T20:30:36.448Z,102278.59
2024-05-09T20:33:07.082Z,102286.38
2024-05-09T20:35:35.456Z,102280.94
2024-05-09T20:38:03.223Z,102274.63
2024-05-09T20:40:35.092Z,102274.84
2024-05-09T20:43:06.212Z,102282.59
2024-05-09T20:45:33.774Z,102278.03
2024-05-09T20:48:01.068Z,102268.94
2024-05-09T20:50:36.505Z,102287.03
2024-05-09T20:53:13.421Z,102282.22
2024-05-09T20:55:41.359Z,102284.94
2024-05-09T20:58:09.205Z,102283.69
2024-05-09T21:00:40.495Z,102283.91
2024-05-09T21:03:12.621Z,102272.69
2024-05-09T21:05:41.048Z,102287.69
2024-05-09T21:08:08.159Z,102281.19
2024-05-09T21:10:36.219Z,102289.34
2024-05-09T21:13:04.136Z,102286.44
2024-05-09T21:15:31.955Z,102275.09
2024-05-09T21:17:59.281Z,102275.94
2024-05-09T21:20:31.706Z,102278.88
2024-05-09T21:23:00.845Z,102280.94
2024-05-09T21:25:27.857Z,102281.75
2024-05-09T21:27:55.023Z,102278.88
2024-05-09T21:30:32.376Z,102277.81
2024-05-09T21:33:14.572Z,102281.38
2024-05-09T21:35:43.117Z,102279.88
2024-05-09T21:38:10.349Z,102269.19
2024-05-09T21:40:38.217Z,102274.06
2024-05-09T21:43:07.524Z,102268.59
2024-05-09T21:45:35.569Z,102262.00
2024-05-09T21:48:06.991Z,102268.34
2024-05-09T21:50:41.403Z,102274.84
2024-05-09T21:53:14.237Z,102269.59
2024-05-09T21:55:42.097Z,102272.69
2024-05-09T21:58:23.845Z,102263.84
2024-05-09T22:00:52.054Z,102252.47
2024-05-09T22:03:19.331Z,102259.44
2024-05-09T22:05:50.712Z,102273.28
2024-05-09T22:08:22.095Z,102274.06
2024-05-09T22:10:49.467Z,102279.50
2024-05-09T22:13:22.247Z,102266.03
2024-05-09T22:15:49.302Z,102273.16
2024-05-09T22:18:16.128Z,102268.94
2024-05-09T22:20:46.789Z,102279.00
2024-05-09T22:23:15.206Z,102276.44
2024-05-09T22:25:42.376Z,102281.06
2024-05-09T22:28:09.745Z,102274.75
2024-05-09T22:30:39.472Z,102275.81
2024-05-09T22:33:09.099Z,102271.22
2024-05-09T22:35:37.356Z,102272.63
2024-05-09T22:38:04.292Z,102268.78
2024-05-09T22:40:41.693Z,102271.44
2024-05-09T22:43:16.652Z,102269.47
2024-05-09T22:45:43.822Z,102267.31
2024-05-09T22:48:10.762Z,102269.59
2024-05-09T22:50:37.746Z,102267.63
2024-05-09T22:53:05.636Z,102263.53
2024-05-09T22:55:32.494Z,102263.25
2024-05-09T22:58:02.308Z,102258.75
2024-05-09T23:00:31.914Z,102245.38
2024-05-09T23:03:02.275Z,102261.28
2024-05-09T23:05:29.613Z,102252.88
2024-05-09T23:07:56.804Z,102245.94
2024-05-09T23:10:31.671Z,102244.44
2024-05-09T23:13:03.354Z,102225.59
2024-05-09T23:15:30.351Z,102238.53
2024-05-09T23:17:58.766Z,102242.47
2024-05-09T23:20:35.889Z,102234.41
2024-05-09T23:23:06.778Z,102236.38
2024-05-09T23:25:34.033Z,102236.00
2024-05-09T23:28:01.019Z,102234.97
2024-05-09T23:30:36.496Z,102238.53
2024-05-09T23:33:06.669Z,102236.09
2024-05-09T23:35:33.582Z,102233.84
2024-05-09T23:38:00.438Z,102218.19
2024-05-09T23:40:37.336Z,102226.22
2024-05-09T23:43:07.520Z,102232.97
2024-05-09T23:45:35.381Z,102222.75
2024-05-09T23:48:03.036Z,102228.44
2024-05-09T23:50:35.601Z,102236.25
2024-05-09T23:53:09.343Z,102237.28
2024-05-09T23:55:37.404Z,102230.13
2024-05-09T23:58:04.730Z,102225.09
